createdAt,value
2023-05-18T00:02:28.952Z,10.78
2023-05-18T00:04:57.725Z,10.74
2023-05-18T00:07:26.414Z,10.72
2023-05-18T00:09:55.083Z,10.71
2023-05-18T00:12:23.941Z,10.68
2023-05-18T00:14:52.524Z,10.65
2023-05-18T00:17:22.057Z,10.65
2023-05-18T00:19:52.178Z,10.64
2023-05-18T00:22:20.715Z,10.61
2023-05-18T00:24:49.819Z,10.62
2023-05-18T00:27:18.307Z,10.62
2023-05-18T00:29:47.710Z,10.60
2023-05-18T00:32:16.557Z,10.57
2023-05-18T00:34:45.045Z,10.55
2023-05-18T00:37:15.167Z,10.55
2023-05-18T00:39:45.111Z,10.53
2023-05-18T00:42:13.944Z,10.44
2023-05-18T00:44:42.468Z,10.49
2023-05-18T00:47:11.867Z,10.46
2023-05-18T00:49:40.660Z,10.44
2023-05-18T00:52:09.345Z,10.41
2023-05-18T00:54:39.818Z,10.40
2023-05-18T00:57:08.938Z,10.39
2023-05-18T00:59:38.173Z,10.39
2023-05-18T01:02:10.228Z,10.37
2023-05-18T01:04:41.640Z,10.35
2023-05-18T01:07:11.418Z,10.34
2023-05-18T01:09:41.567Z,10.28
2023-05-18T01:12:20.252Z,10.26
2023-05-18T01:14:54.241Z,10.20
2023-05-18T01:17:34.010Z,10.21
2023-05-18T01:20:20.704Z,10.17
2023-05-18T01:23:14.263Z,10.17
2023-05-18T01:25:51.958Z,10.14
2023-05-18T01:28:26.704Z,10.15
2023-05-18T01:30:56.271Z,10.13
2023-05-18T01:33:28.110Z,10.10
2023-05-18T01:35:56.662Z,10.11
2023-05-18T01:38:27.509Z,10.12
2023-05-18T01:41:01.503Z,10.09
2023-05-18T01:43:36.084Z,10.10
2023-05-18T01:46:15.221Z,10.06
2023-05-18T01:48:49.900Z,10.10
2023-05-18T01:51:22.678Z,10.07
2023-05-18T01:53:59.872Z,10.02
2023-05-18T01:56:30.292Z,10.07
2023-05-18T01:59:02.987Z,10.06
2023-05-18T02:01:32.007Z,9.98
2023-05-18T02:04:00.730Z,9.95
2023-05-18T02:06:29.457Z,10.01
2023-05-18T02:08:58.041Z,9.98
2023-05-18T02:11:26.626Z,9.92
2023-05-18T02:13:55.846Z,9.93
2023-05-18T02:16:26.312Z,9.89
2023-05-18T02:18:56.836Z,9.86
2023-05-18T02:21:26.319Z,9.83
2023-05-18T02:23:55.020Z,9.84
2023-05-18T02:26:24.212Z,9.85
2023-05-18T02:28:52.747Z,9.85
2023-05-18T02:31:21.359Z,9.84
2023-05-18T02:33:51.432Z,9.82
2023-05-18T02:36:22.749Z,9.84
2023-05-18T02:38:51.434Z,9.84
2023-05-18T02:41:20.266Z,9.82
2023-05-18T02:43:48.836Z,9.75
2023-05-18T02:46:17.458Z,9.78
2023-05-18T02:48:46.021Z,9.77
2023-05-18T02:51:16.149Z,9.76
2023-05-18T02:53:45.755Z,9.73
2023-05-18T02:56:14.451Z,9.71
2023-05-18T02:58:43.969Z,9.67
2023-05-18T03:01:13.643Z,9.67
2023-05-18T03:03:43.743Z,9.66
2023-05-18T03:06:12.408Z,9.63
2023-05-18T03:08:42.839Z,9.59
2023-05-18T03:11:11.685Z,9.60
2023-05-18T03:13:40.449Z,9.59
2023-05-18T03:16:09.298Z,9.58
2023-05-18T03:18:38.138Z,9.57
2023-05-18T03:21:08.418Z,9.55
2023-05-18T03:23:37.134Z,9.55
2023-05-18T03:26:11.787Z,9.52
2023-05-18T03:28:40.641Z,9.55
2023-05-18T03:31:09.430Z,9.56
2023-05-18T03:33:37.910Z,9.55
2023-05-18T03:36:06.900Z,9.53
2023-05-18T03:38:35.502Z,9.55
2023-05-18T03:41:04.385Z,9.53
2023-05-18T03:43:34.410Z,9.54
2023-05-18T03:46:03.021Z,9.51
2023-05-18T03:48:31.680Z,9.55
2023-05-18T03:51:00.495Z,9.55
2023-05-18T03:53:29.835Z,9.57
2023-05-18T03:55:58.684Z,9.55
2023-05-18T03:58:27.794Z,9.57
2023-05-18T04:00:58.236Z,9.59
2023-05-18T04:03:27.504Z,9.57
2023-05-18T04:05:56.522Z,9.52
2023-05-18T04:08:25.878Z,9.53
2023-05-18T04:10:55.614Z,9.52
2023-05-18T04:13:24.241Z,9.49
2023-05-18T04:15:53.167Z,9.48
2023-05-18T04:18:23.470Z,9.43
2023-05-18T04:20:52.959Z,9.46
2023-05-18T04:23:21.487Z,9.47
2023-05-18T04:25:50.466Z,9.48
2023-05-18T04:28:19.470Z,9.52
2023-05-18T04:30:48.143Z,9.52
2023-05-18T04:33:17.154Z,9.55
2023-05-18T04:35:47.158Z,9.52
2023-05-18T04:38:16.885Z,9.40
2023-05-18T04:40:45.655Z,9.47
2023-05-18T04:43:14.349Z,9.44
2023-05-18T04:45:43.094Z,9.43
2023-05-18T04:48:11.795Z,9.49
2023-05-18T04:50:43.368Z,9.50
2023-05-18T04:53:14.853Z,9.50
2023-05-18T04:55:43.348Z,9.54
2023-05-18T04:58:12.452Z,9.52
2023-05-18T05:00:41.350Z,9.45
2023-05-18T05:03:10.684Z,9.42
2023-05-18T05:05:39.428Z,9.45
2023-05-18T05:08:08.027Z,9.43
2023-05-18T05:10:38.241Z,9.47
2023-05-18T05:13:07.670Z,9.45
2023-05-18T05:15:37.559Z,9.49
2023-05-18T05:18:07.523Z,9.43
2023-05-18T05:20:36.150Z,9.38
2023-05-18T05:23:04.938Z,9.46
2023-05-18T05:25:33.758Z,9.50
2023-05-18T05:28:04.419Z,9.52
2023-05-18T05:30:34.117Z,9.60
2023-05-18T05:33:10.115Z,9.62
2023-05-18T05:35:39.396Z,9.71
2023-05-18T05:38:08.663Z,9.75
2023-05-18T05:40:37.279Z,9.63
2023-05-18T05:43:08.017Z,9.68
2023-05-18T05:45:36.697Z,9.76
2023-05-18T05:48:05.431Z,9.84
2023-05-18T05:50:34.305Z,9.90
2023-05-18T05:53:02.983Z,9.94
2023-05-18T05:55:31.837Z,9.97
2023-05-18T05:58:00.528Z,10.02
2023-05-18T06:00:30.584Z,10.09
2023-05-18T06:02:59.235Z,10.11
2023-05-18T06:05:28.079Z,10.07
2023-05-18T06:07:58.000Z,10.12
2023-05-18T06:10:26.795Z,10.17
2023-05-18T06:12:55.441Z,10.13
2023-05-18T06:15:24.226Z,10.21
2023-05-18T06:17:54.209Z,10.15
2023-05-18T06:20:22.765Z,10.32
2023-05-18T06:22:51.480Z,10.37
2023-05-18T06:25:20.252Z,10.37
2023-05-18T06:27:48.845Z,10.52
2023-05-18T06:30:17.584Z,10.52
2023-05-18T06:32:46.129Z,10.49
2023-05-18T06:35:16.394Z,10.53
2023-05-18T06:37:46.969Z,10.61
2023-05-18T06:40:15.749Z,10.63
2023-05-18T06:42:44.232Z,10.71
2023-05-18T06:45:17.356Z,10.76
2023-05-18T06:47:46.897Z,10.70
2023-05-18T06:50:17.620Z,10.78
2023-05-18T06:52:46.498Z,10.82
2023-05-18T06:55:15.617Z,10.81
2023-05-18T06:57:44.589Z,10.94
2023-05-18T07:00:14.000Z,10.96
2023-05-18T07:02:44.544Z,10.99
2023-05-18T07:05:13.840Z,11.11
2023-05-18T07:07:44.012Z,11.14
2023-05-18T07:10:12.854Z,11.26
2023-05-18T07:12:41.338Z,11.36
2023-05-18T07:15:11.758Z,11.29
2023-05-18T07:17:40.396Z,11.35
2023-05-18T07:20:10.796Z,11.40
2023-05-18T07:22:39.339Z,11.45
2023-05-18T07:25:10.111Z,11.50
2023-05-18T07:27:38.687Z,11.61
2023-05-18T07:30:09.294Z,11.65
2023-05-18T07:32:38.352Z,11.73
2023-05-18T07:35:07.653Z,11.77
2023-05-18T07:37:36.194Z,11.82
2023-05-18T07:40:05.327Z,11.89
2023-05-18T07:42:35.224Z,11.95
2023-05-18T07:45:03.848Z,12.07
2023-05-18T07:47:32.338Z,12.18
2023-05-18T07:50:00.960Z,12.23
2023-05-18T07:52:29.695Z,12.30
2023-05-18T07:54:58.393Z,12.40
2023-05-18T07:57:27.650Z,12.50
2023-05-18T07:59:57.871Z,12.54
2023-05-18T08:02:26.698Z,12.70
2023-05-18T08:04:55.930Z,12.68
2023-05-18T08:07:26.780Z,12.82
2023-05-18T08:09:55.968Z,13.01
2023-05-18T08:12:24.800Z,13.18
2023-05-18T08:14:54.086Z,13.25
2023-05-18T08:17:24.296Z,13.27
2023-05-18T08:19:54.069Z,13.38
2023-05-18T08:22:22.684Z,13.49
2023-05-18T08:24:51.209Z,13.61
2023-05-18T08:27:20.264Z,13.74
2023-05-18T08:29:48.955Z,13.80
2023-05-18T08:32:17.482Z,13.95
2023-05-18T08:34:48.011Z,14.05
2023-05-18T08:37:16.875Z,14.00
2023-05-18T08:39:46.393Z,14.06
2023-05-18T08:42:21.325Z,14.05
2023-05-18T08:45:00.033Z,14.03
2023-05-18T08:47:32.426Z,14.12
2023-05-18T08:50:04.008Z,14.28
2023-05-18T08:52:37.889Z,14.27
2023-05-18T08:55:11.816Z,14.33
2023-05-18T08:58:23.864Z,14.36
2023-05-18T09:00:54.855Z,14.42
2023-05-18T09:03:24.643Z,14.51
2023-05-18T09:05:55.417Z,14.46
2023-05-18T09:08:25.109Z,14.51
2023-05-18T09:10:54.685Z,14.44
2023-05-18T09:13:23.349Z,14.57
2023-05-18T09:15:52.210Z,14.71
2023-05-18T09:18:23.609Z,14.96
2023-05-18T09:20:54.772Z,15.10
2023-05-18T09:23:23.358Z,15.12
2023-05-18T09:25:54.141Z,15.20
2023-05-18T09:28:33.328Z,15.24
2023-05-18T09:31:02.239Z,15.18
2023-05-18T09:33:35.628Z,15.16
2023-05-18T09:36:06.800Z,14.98
2023-05-18T09:38:38.555Z,15.18
2023-05-18T09:41:12.744Z,15.34
2023-05-18T09:43:44.013Z,15.39
2023-05-18T09:46:13.551Z,15.65
2023-05-18T09:48:44.261Z,15.71
2023-05-18T09:51:17.198Z,15.80
2023-05-18T09:53:50.856Z,16.04
2023-05-18T09:56:20.132Z,16.24
2023-05-18T09:59:07.906Z,16.44
2023-05-18T10:01:37.096Z,16.63
2023-05-18T10:04:06.545Z,16.65
2023-05-18T10:06:36.808Z,16.61
2023-05-18T10:09:06.104Z,16.78
2023-05-18T10:11:35.042Z,16.80
2023-05-18T10:14:04.127Z,16.87
2023-05-18T10:16:34.326Z,16.82
2023-05-18T10:19:05.241Z,16.81
2023-05-18T10:21:38.714Z,16.72
2023-05-18T10:24:09.135Z,16.97
2023-05-18T10:26:40.695Z,17.00
2023-05-18T10:29:11.126Z,17.29
2023-05-18T10:31:40.612Z,17.17
2023-05-18T10:34:10.651Z,17.38
2023-05-18T10:36:40.874Z,17.52
2023-05-18T10:39:11.499Z,17.57
2023-05-18T10:41:41.451Z,17.70
2023-05-18T10:44:11.342Z,17.65
2023-05-18T10:46:41.211Z,17.52
2023-05-18T10:49:15.201Z,17.87
2023-05-18T10:51:47.688Z,18.16
2023-05-18T10:54:16.588Z,18.28
2023-05-18T10:56:48.126Z,18.48
2023-05-18T10:59:18.635Z,18.45
2023-05-18T11:01:49.285Z,18.23
2023-05-18T11:04:18.027Z,18.33
2023-05-18T11:06:57.093Z,18.60
2023-05-18T11:09:26.701Z,18.67
2023-05-18T11:11:58.268Z,18.71
2023-05-18T11:14:28.707Z,18.82
2023-05-18T11:17:17.967Z,19.25
2023-05-18T11:20:13.797Z,19.31
2023-05-18T11:22:46.346Z,18.68
2023-05-18T11:25:39.268Z,19.06
2023-05-18T11:28:10.029Z,19.30
2023-05-18T11:30:52.649Z,19.48
2023-05-18T11:33:26.845Z,19.76
2023-05-18T11:36:13.909Z,20.16
2023-05-18T11:39:04.062Z,20.38
2023-05-18T11:41:36.937Z,20.03
2023-05-18T11:44:10.326Z,20.38
2023-05-18T11:46:39.368Z,20.45
2023-05-18T11:49:09.930Z,20.55
2023-05-18T11:51:58.680Z,20.22
2023-05-18T11:54:29.658Z,20.04
2023-05-18T11:57:00.210Z,20.23
2023-05-18T11:59:33.480Z,20.54
2023-05-18T12:02:03.989Z,20.64
2023-05-18T12:04:33.913Z,20.53
2023-05-18T12:07:06.844Z,20.81
2023-05-18T12:09:37.296Z,20.52
2023-05-18T12:12:07.012Z,20.81
2023-05-18T12:14:37.633Z,20.98
2023-05-18T12:17:07.041Z,21.12
2023-05-18T12:19:45.617Z,21.33
2023-05-18T12:22:14.415Z,21.40
2023-05-18T12:24:45.985Z,21.21
2023-05-18T12:27:14.787Z,21.43
2023-05-18T12:29:44.221Z,21.38
2023-05-18T12:32:14.801Z,21.51
2023-05-18T12:34:48.209Z,21.68
2023-05-18T12:37:16.911Z,21.68
2023-05-18T12:39:46.900Z,21.91
2023-05-18T12:42:16.665Z,21.45
2023-05-18T12:44:46.768Z,20.90
2023-05-18T12:47:16.315Z,21.13
2023-05-18T12:49:50.356Z,21.32
2023-05-18T12:52:19.244Z,21.20
2023-05-18T12:55:00.210Z,21.29
2023-05-18T12:57:31.405Z,21.54
2023-05-18T13:00:00.454Z,21.87
2023-05-18T13:02:31.729Z,21.86
2023-05-18T13:05:04.730Z,21.85
2023-05-18T13:07:34.648Z,22.13
2023-05-18T13:10:07.410Z,22.21
2023-05-18T13:12:47.238Z,22.34
2023-05-18T13:15:18.143Z,22.41
2023-05-18T13:17:56.378Z,22.62
2023-05-18T13:20:25.670Z,22.77
2023-05-18T13:22:56.291Z,22.89
2023-05-18T13:25:26.314Z,22.69
2023-05-18T13:27:55.523Z,22.86
2023-05-18T13:30:24.526Z,22.96
2023-05-18T13:32:53.762Z,23.29
2023-05-18T13:35:22.732Z,22.99
2023-05-18T13:37:53.461Z,22.93
2023-05-18T13:40:24.207Z,23.18
2023-05-18T13:42:54.719Z,23.38
2023-05-18T13:45:23.548Z,23.57
2023-05-18T13:47:53.829Z,23.58
2023-05-18T13:50:23.334Z,23.46
2023-05-18T13:52:52.186Z,23.18
2023-05-18T13:55:20.845Z,22.78
2023-05-18T13:57:49.334Z,22.90
2023-05-18T14:00:20.994Z,23.13
2023-05-18T14:02:49.981Z,22.94
2023-05-18T14:05:18.790Z,23.14
2023-05-18T14:07:47.395Z,23.40
2023-05-18T14:10:15.978Z,23.59
2023-05-18T14:12:44.455Z,23.70
2023-05-18T14:15:15.157Z,23.10
2023-05-18T14:17:50.034Z,23.04
2023-05-18T14:20:19.960Z,23.05
2023-05-18T14:22:48.745Z,22.76
2023-05-18T14:25:17.643Z,22.60
2023-05-18T14:27:46.651Z,22.85
2023-05-18T14:30:15.518Z,23.21
2023-05-18T14:32:45.681Z,23.29
2023-05-18T14:35:14.374Z,23.38
2023-05-18T14:37:43.033Z,22.63
2023-05-18T14:40:12.231Z,22.86
2023-05-18T14:42:40.912Z,22.96
2023-05-18T14:45:10.735Z,23.05
2023-05-18T14:47:39.569Z,23.07
2023-05-18T14:50:10.361Z,23.06
2023-05-18T14:52:39.057Z,23.08
2023-05-18T14:55:08.254Z,22.99
2023-05-18T14:57:36.887Z,23.10
2023-05-18T15:00:06.568Z,23.10
2023-05-18T15:02:35.212Z,23.13
2023-05-18T15:05:04.045Z,23.10
2023-05-18T15:07:34.174Z,23.06
2023-05-18T15:10:02.922Z,23.04
2023-05-18T15:12:31.574Z,22.82
2023-05-18T15:15:00.337Z,22.29
2023-05-18T15:17:29.133Z,21.61
2023-05-18T15:19:57.860Z,20.89
2023-05-18T15:22:26.516Z,20.96
2023-05-18T15:24:56.552Z,21.10
2023-05-18T15:27:25.136Z,21.30
2023-05-18T15:29:53.815Z,21.48
2023-05-18T15:32:22.388Z,21.52
2023-05-18T15:34:51.845Z,21.36
2023-05-18T15:37:20.414Z,21.44
2023-05-18T15:39:48.914Z,21.35
2023-05-18T15:42:20.268Z,21.30
2023-05-18T15:44:49.023Z,21.33
2023-05-18T15:47:17.564Z,21.40
2023-05-18T15:49:46.112Z,21.33
2023-05-18T15:52:14.591Z,21.10
2023-05-18T15:54:43.092Z,21.20
2023-05-18T15:57:11.572Z,21.21
2023-05-18T15:59:41.581Z,20.90
2023-05-18T16:02:10.354Z,20.70
2023-05-18T16:04:39.191Z,20.60
2023-05-18T16:07:07.769Z,20.63
2023-05-18T16:09:36.358Z,20.64
2023-05-18T16:12:05.256Z,20.39
2023-05-18T16:14:34.092Z,20.45
2023-05-18T16:17:04.239Z,20.02
2023-05-18T16:19:33.505Z,19.37
2023-05-18T16:22:04.455Z,19.65
2023-05-18T16:24:33.019Z,19.65
2023-05-18T16:27:01.645Z,19.99
2023-05-18T16:29:30.414Z,20.08
2023-05-18T16:31:59.324Z,20.12
2023-05-18T16:34:31.611Z,19.98
2023-05-18T16:37:00.712Z,19.72
2023-05-18T16:39:30.180Z,19.77
2023-05-18T16:41:59.367Z,19.49
2023-05-18T16:44:28.836Z,19.41
2023-05-18T16:46:58.115Z,19.35
2023-05-18T16:49:34.890Z,19.39
2023-05-18T16:52:05.630Z,19.48
2023-05-18T16:54:38.934Z,19.56
2023-05-18T16:57:08.940Z,19.58
2023-05-18T16:59:38.244Z,19.17
2023-05-18T17:02:13.481Z,19.10
2023-05-18T17:04:45.132Z,19.21
2023-05-18T17:07:14.355Z,18.92
2023-05-18T17:09:44.494Z,18.50
2023-05-18T17:12:13.965Z,18.46
2023-05-18T17:14:43.187Z,18.45
2023-05-18T17:17:13.394Z,18.59
2023-05-18T17:19:43.561Z,18.23
2023-05-18T17:22:13.520Z,18.04
2023-05-18T17:24:43.631Z,18.09
2023-05-18T17:27:12.993Z,18.25
2023-05-18T17:29:42.057Z,18.46
2023-05-18T17:32:10.761Z,18.43
2023-05-18T17:34:40.854Z,18.18
2023-05-18T17:37:11.836Z,18.08
2023-05-18T17:39:40.918Z,18.22
2023-05-18T17:42:09.824Z,18.12
2023-05-18T17:44:41.794Z,17.90
2023-05-18T17:47:11.011Z,17.97
2023-05-18T17:49:39.755Z,17.79
2023-05-18T17:52:08.884Z,17.81
2023-05-18T17:54:38.862Z,17.88
2023-05-18T17:57:07.665Z,17.88
2023-05-18T17:59:37.365Z,18.01
2023-05-18T18:02:06.533Z,17.71
2023-05-18T18:04:35.204Z,17.52
2023-05-18T18:07:03.773Z,17.30
2023-05-18T18:09:32.611Z,16.94
2023-05-18T18:12:05.518Z,16.79
2023-05-18T18:14:34.369Z,16.70
2023-05-18T18:17:03.603Z,16.64
2023-05-18T18:19:32.430Z,16.81
2023-05-18T18:22:01.334Z,16.74
2023-05-18T18:24:30.406Z,16.63
2023-05-18T18:26:58.911Z,16.35
2023-05-18T18:29:30.705Z,16.45
2023-05-18T18:31:59.364Z,16.45
2023-05-18T18:34:28.202Z,16.29
2023-05-18T18:36:57.076Z,16.31
2023-05-18T18:39:26.571Z,16.20
2023-05-18T18:41:55.381Z,16.16
2023-05-18T18:44:23.896Z,16.21
2023-05-18T18:46:56.908Z,16.25
2023-05-18T18:49:25.836Z,16.06
2023-05-18T18:51:55.033Z,15.81
2023-05-18T18:54:24.071Z,15.89
2023-05-18T18:56:55.431Z,15.85
2023-05-18T18:59:24.477Z,15.82
2023-05-18T19:01:56.095Z,15.80
2023-05-18T19:04:24.855Z,16.03
2023-05-18T19:06:54.254Z,16.08
2023-05-18T19:09:23.088Z,15.97
2023-05-18T19:11:51.672Z,16.02
2023-05-18T19:14:20.309Z,16.06
2023-05-18T19:16:48.960Z,16.01
2023-05-18T19:19:21.056Z,15.91
2023-05-18T19:21:50.978Z,16.03
2023-05-18T19:24:20.321Z,15.91
2023-05-18T19:26:52.522Z,15.84
2023-05-18T19:29:25.398Z,15.84
2023-05-18T19:31:55.903Z,15.76
2023-05-18T19:34:26.723Z,15.57
2023-05-18T19:36:56.295Z,15.59
2023-05-18T19:39:26.843Z,15.67
2023-05-18T19:41:56.399Z,15.82
2023-05-18T19:44:25.582Z,15.84
2023-05-18T19:46:54.166Z,15.96
2023-05-18T19:49:22.805Z,15.90
2023-05-18T19:51:54.086Z,15.93
2023-05-18T19:54:23.438Z,15.94
2023-05-18T19:56:52.448Z,16.01
2023-05-18T19:59:21.514Z,16.03
2023-05-18T20:01:51.663Z,15.94
2023-05-18T20:04:24.172Z,16.00
2023-05-18T20:06:54.428Z,15.96
2023-05-18T20:09:23.304Z,15.88
2023-05-18T20:11:54.759Z,15.93
2023-05-18T20:14:23.789Z,15.90
2023-05-18T20:16:53.394Z,15.88
2023-05-18T20:19:22.401Z,15.85
2023-05-18T20:21:51.569Z,15.80
2023-05-18T20:24:21.788Z,15.65
2023-05-18T20:26:50.927Z,15.66
2023-05-18T20:29:19.803Z,15.64
2023-05-18T20:31:48.516Z,15.61
2023-05-18T20:34:17.373Z,15.56
2023-05-18T20:36:46.097Z,15.51
2023-05-18T20:39:15.594Z,15.48
2023-05-18T20:41:45.948Z,15.43
2023-05-18T20:44:18.024Z,15.37
2023-05-18T20:46:47.925Z,15.35
2023-05-18T20:49:16.586Z,15.27
2023-05-18T20:51:45.067Z,15.27
2023-05-18T20:54:14.400Z,15.20
2023-05-18T20:56:43.996Z,15.16
2023-05-18T20:59:14.018Z,15.14
2023-05-18T21:01:44.611Z,15.09
2023-05-18T21:04:13.604Z,15.05
2023-05-18T21:06:44.579Z,14.99
2023-05-18T21:09:13.123Z,14.96
2023-05-18T21:11:41.918Z,14.91
2023-05-18T21:14:10.775Z,14.89
2023-05-18T21:16:41.636Z,14.83
2023-05-18T21:19:11.283Z,14.77
2023-05-18T21:21:39.927Z,14.76
2023-05-18T21:24:08.508Z,14.73
2023-05-18T21:26:37.158Z,14.67
2023-05-18T21:29:06.428Z,14.66
2023-05-18T21:31:35.060Z,14.63
2023-05-18T21:34:05.351Z,14.59
2023-05-18T21:36:35.053Z,14.57
2023-05-18T21:39:04.944Z,14.54
2023-05-18T21:41:35.470Z,14.50
2023-05-18T21:44:04.075Z,14.46
2023-05-18T21:46:32.892Z,14.44
2023-05-18T21:49:03.119Z,14.40
2023-05-18T21:51:33.338Z,14.37
2023-05-18T21:54:02.633Z,14.35
2023-05-18T21:56:31.297Z,14.31
2023-05-18T21:59:00.281Z,14.30
2023-05-18T22:01:28.938Z,14.28
2023-05-18T22:03:57.753Z,14.23
2023-05-18T22:06:26.310Z,14.23
2023-05-18T22:08:56.248Z,14.21
2023-05-18T22:11:24.812Z,14.19
2023-05-18T22:13:53.404Z,14.10
2023-05-18T22:16:22.047Z,14.14
2023-05-18T22:18:50.742Z,14.10
2023-05-18T22:21:19.967Z,13.94
2023-05-18T22:23:51.560Z,13.84
2023-05-18T22:26:22.634Z,13.81
2023-05-18T22:28:51.617Z,13.84
2023-05-18T22:31:20.490Z,13.82
2023-05-18T22:33:50.719Z,13.84
2023-05-18T22:36:21.938Z,13.83
2023-05-18T22:38:52.581Z,13.77
2023-05-18T22:41:22.747Z,13.77
2023-05-18T22:43:51.681Z,13.73
2023-05-18T22:46:20.926Z,13.58
2023-05-18T22:48:49.745Z,13.43
2023-05-18T22:51:18.954Z,13.04
2023-05-18T22:53:47.680Z,13.08
2023-05-18T22:56:19.227Z,13.05
2023-05-18T22:58:49.541Z,13.06
2023-05-18T23:01:18.091Z,13.10
2023-05-18T23:03:46.769Z,13.06
2023-05-18T23:06:15.397Z,12.93
2023-05-18T23:08:45.047Z,12.95
2023-05-18T23:11:13.600Z,12.83
2023-05-18T23:13:42.176Z,12.80
2023-05-18T23:16:12.093Z,12.80
2023-05-18T23:18:40.639Z,12.80
2023-05-18T23:21:09.258Z,12.75
2023-05-18T23:23:37.751Z,12.70
2023-05-18T23:26:06.299Z,12.75
2023-05-18T23:28:34.882Z,12.77
2023-05-18T23:31:03.480Z,12.75
2023-05-18T23:33:34.973Z,12.76
2023-05-18T23:36:04.515Z,12.72
2023-05-18T23:38:38.191Z,12.74
2023-05-18T23:41:07.336Z,12.74
2023-05-18T23:43:36.461Z,12.64
2023-05-18T23:46:06.902Z,12.64
2023-05-18T23:48:37.640Z,12.70
2023-05-18T23:51:07.638Z,12.69
2023-05-18T23:53:38.508Z,12.50
2023-05-18T23:56:08.573Z,12.46
2023-05-18T23:58:38.174Z,12.34
